Time;durP1;ratioP1;P1;durP2;ratioP2;P2;SDS_P1;SDS_P2;PMS_P1;PMS_P2;Temp;Humidity;BMP_temperature;BMP_pressure;BME280_temperature;BME280_humidity;BME280_pressure;Samples;Min_cycle;Max_cycle;Signal;HPM_P1;HPM_P2
2022/09/01 00:00:13;;;;;;;25.05;18.35;;;12.90;99.90;;;;;;5009631;28;20783;-54
2022/09/01 00:02:42;;;;;;;20.00;16.90;;;12.90;99.90;;;;;;4993580;28;20785;-55
2022/09/01 00:05:11;;;;;;;27.95;17.85;;;12.90;99.90;;;;;;5010209;28;20109;-55
2022/09/01 00:07:39;;;;;;;22.67;18.92;;;13.00;99.90;;;;;;5025308;28;20047;-54
2022/09/01 00:10:07;;;;;;;22.30;18.13;;;13.00;99.90;;;;;;4997079;28;20289;-55
2022/09/01 00:12:35;;;;;;;24.52;18.20;;;13.00;99.90;;;;;;4995443;28;20199;-54
2022/09/01 00:15:06;;;;;;;22.67;18.40;;;13.00;99.90;;;;;;5019143;28;20036;-55
2022/09/01 00:17:35;;;;;;;27.25;19.83;;;13.00;99.90;;;;;;4988370;28;20055;-55
2022/09/01 00:20:04;;;;;;;21.33;17.27;;;13.00;99.90;;;;;;4989288;28;20036;-54
2022/09/01 00:22:32;;;;;;;20.27;16.02;;;13.00;99.90;;;;;;5008695;28;20989;-55
2022/09/01 00:25:00;;;;;;;20.80;15.98;;;13.10;99.90;;;;;;5029019;28;20040;-56
2022/09/01 00:27:28;;;;;;;19.02;16.27;;;13.10;99.90;;;;;;4996984;28;20430;-55
2022/09/01 00:29:59;;;;;;;21.98;17.27;;;13.10;99.90;;;;;;5009382;28;20032;-54
2022/09/01 00:32:27;;;;;;;21.67;17.08;;;13.20;99.90;;;;;;5010614;28;20036;-55
2022/09/01 00:34:56;;;;;;;24.83;17.63;;;13.20;99.90;;;;;;4992737;28;20592;-53
2022/09/01 00:37:23;;;;;;;22.02;17.08;;;13.20;99.90;;;;;;5014401;28;20604;-55
2022/09/01 00:39:51;;;;;;;19.50;15.82;;;13.20;99.90;;;;;;5004457;28;20927;-54
2022/09/01 00:42:18;;;;;;;24.00;17.52;;;13.30;99.90;;;;;;4992528;28;20059;-55
2022/09/01 00:44:47;;;;;;;16.67;14.50;;;13.30;99.90;;;;;;4989158;28;20056;-54
2022/09/01 00:47:15;;;;;;;15.85;14.15;;;13.30;99.90;;;;;;4989428;28;20593;-55
2022/09/01 00:49:48;;;;;;;21.88;15.45;;;13.30;99.90;;;;;;5009070;28;20063;-54
2022/09/01 00:52:31;;;;;;;20.60;15.35;;;13.30;99.90;;;;;;4987300;28;20106;-57
2022/09/01 00:55:04;;;;;;;19.13;15.05;;;13.30;99.90;;;;;;5010250;28;20217;-56
2022/09/01 00:57:32;;;;;;;21.92;15.82;;;13.40;99.90;;;;;;4987724;28;20036;-56
2022/09/01 01:00:15;;;;;;;20.00;16.92;;;13.40;99.90;;;;;;4991189;28;20037;-54
2022/09/01 01:02:45;;;;;;;21.50;16.08;;;13.40;99.90;;;;;;4989599;28;20773;-55
2022/09/01 01:05:14;;;;;;;24.52;19.45;;;13.40;99.90;;;;;;5009496;28;20596;-56
2022/09/01 01:07:46;;;;;;;30.83;17.77;;;13.40;99.90;;;;;;4990684;28;20093;-54
2022/09/01 01:10:16;;;;;;;24.92;18.08;;;13.40;99.90;;;;;;5019913;28;20111;-55
2022/09/01 01:12:45;;;;;;;23.10;18.30;;;13.40;99.90;;;;;;5005277;28;20040;-55
2022/09/01 01:15:16;;;;;;;20.30;16.90;;;13.40;99.90;;;;;;4983711;28;20048;-55
2022/09/01 01:17:43;;;;;;;21.48;16.42;;;13.40;99.90;;;;;;5010492;28;20197;-55
2022/09/01 01:23:12;;;;;;;17.30;14.90;;;13.40;99.90;;;;;;5009340;28;20197;-55
2022/09/01 01:25:41;;;;;;;21.13;17.33;;;13.50;99.90;;;;;;5008573;28;20044;-54
2022/09/01 01:28:24;;;;;;;18.65;15.52;;;13.50;99.90;;;;;;5027841;28;20033;-56
2022/09/01 01:31:00;;;;;;;21.45;16.40;;;13.50;99.90;;;;;;5010003;28;20040;-55
2022/09/01 01:33:40;;;;;;;19.52;16.88;;;13.50;99.90;;;;;;4992618;28;20056;-55
2022/09/01 01:36:18;;;;;;;21.63;16.20;;;13.50;99.90;;;;;;4987404;28;20470;-55
2022/09/01 01:38:48;;;;;;;19.52;16.88;;;13.60;99.90;;;;;;5007407;28;20036;-53
2022/09/01 01:41:20;;;;;;;19.75;16.38;;;13.60;99.90;;;;;;4990127;28;20044;-54
2022/09/01 01:43:49;;;;;;;21.52;15.30;;;13.60;99.90;;;;;;4997674;28;20627;-55
2022/09/01 01:46:20;;;;;;;20.90;16.17;;;13.60;99.90;;;;;;4993964;28;20037;-54
2022/09/01 01:48:51;;;;;;;19.65;16.63;;;13.60;99.90;;;;;;4973423;28;20032;-54
2022/09/01 01:51:23;;;;;;;18.50;15.27;;;13.60;99.90;;;;;;5010936;28;20045;-54
2022/09/01 01:53:51;;;;;;;21.73;17.15;;;13.60;99.90;;;;;;4974003;28;20041;-55
2022/09/01 01:56:24;;;;;;;19.58;15.75;;;13.60;99.90;;;;;;4977942;28;20040;-54
2022/09/01 01:58:54;;;;;;;15.65;14.05;;;13.60;99.90;;;;;;4992594;28;20105;-55
2022/09/01 02:01:27;;;;;;;21.35;16.15;;;13.60;99.90;;;;;;4990804;28;20125;-55
2022/09/01 02:03:58;;;;;;;16.98;14.20;;;13.60;99.90;;;;;;4961284;28;20040;-54
2022/09/01 02:06:28;;;;;;;18.42;13.98;;;13.60;99.90;;;;;;4991905;28;20103;-54
2022/09/01 02:08:58;;;;;;;15.93;12.82;;;13.60;99.90;;;;;;5004913;28;20048;-54
2022/09/01 02:11:25;;;;;;;19.50;14.23;;;13.60;99.90;;;;;;4987006;28;20052;-55
2022/09/01 02:13:56;;;;;;;17.42;14.10;;;13.60;99.90;;;;;;4996176;28;20037;-55
2022/09/01 02:16:25;;;;;;;22.70;16.55;;;13.60;99.90;;;;;;5011391;28;20040;-55
2022/09/01 02:18:53;;;;;;;18.95;14.63;;;13.60;99.90;;;;;;5011540;28;20639;-54
2022/09/01 02:21:23;;;;;;;17.33;13.18;;;13.60;99.90;;;;;;5009521;28;20048;-55
2022/09/01 02:24:00;;;;;;;15.55;13.95;;;13.60;99.90;;;;;;5025765;28;20205;-54
2022/09/01 02:26:46;;;;;;;18.15;15.48;;;13.60;99.90;;;;;;5031213;28;20036;-56
2022/09/01 02:29:21;;;;;;;18.30;14.77;;;13.60;99.90;;;;;;4992451;28;20044;-55
2022/09/01 02:31:51;;;;;;;14.98;13.43;;;13.60;99.90;;;;;;5031453;28;20189;-55
2022/09/01 02:34:22;;;;;;;16.58;13.43;;;13.60;99.90;;;;;;5029817;28;20068;-55
2022/09/01 02:36:54;;;;;;;21.05;14.98;;;13.60;99.90;;;;;;5002706;28;20048;-54
2022/09/01 02:39:27;;;;;;;18.10;14.00;;;13.60;99.90;;;;;;4992473;28;20033;-55
2022/09/01 02:41:55;;;;;;;16.30;13.95;;;13.60;99.90;;;;;;5008907;28;20048;-54
2022/09/01 02:44:26;;;;;;;16.48;14.27;;;13.70;99.90;;;;;;4993281;28;20306;-55
2022/09/01 02:46:54;;;;;;;17.50;13.15;;;13.60;99.90;;;;;;5007640;28;20339;-55
2022/09/01 02:49:24;;;;;;;15.85;13.00;;;13.70;99.90;;;;;;5013762;28;20263;-55
2022/09/01 02:51:56;;;;;;;21.25;15.35;;;13.70;99.90;;;;;;4994327;28;20422;-56
2022/09/01 02:54:24;;;;;;;19.67;14.80;;;13.70;99.90;;;;;;5010792;28;20037;-56
2022/09/01 02:56:53;;;;;;;15.50;13.32;;;13.70;99.90;;;;;;5009467;28;20363;-55
2022/09/01 02:59:25;;;;;;;18.25;13.02;;;13.70;99.90;;;;;;5030630;28;20036;-56
2022/09/01 03:01:56;;;;;;;15.77;13.38;;;13.70;99.90;;;;;;5011092;28;20201;-55
2022/09/01 03:04:25;;;;;;;17.08;14.32;;;13.70;99.90;;;;;;5009809;28;20589;-54
2022/09/01 03:06:57;;;;;;;20.05;16.30;;;13.70;99.90;;;;;;5010131;28;20334;-56
2022/09/01 03:09:24;;;;;;;18.75;15.80;;;13.70;99.90;;;;;;5027842;28;20048;-54
2022/09/01 03:11:53;;;;;;;23.58;15.25;;;13.70;99.90;;;;;;4994843;28;20101;-53
2022/09/01 03:14:21;;;;;;;18.10;14.70;;;13.70;99.90;;;;;;5002480;28;20107;-55
2022/09/01 03:16:48;;;;;;;15.30;12.82;;;13.70;99.90;;;;;;5008822;28;20036;-54
2022/09/01 03:19:17;;;;;;;17.10;11.63;;;13.60;99.90;;;;;;4990031;28;20044;-55
2022/09/01 03:21:47;;;;;;;17.10;12.05;;;13.60;99.90;;;;;;4987226;28;20032;-55
2022/09/01 03:24:20;;;;;;;14.57;12.18;;;13.60;99.90;;;;;;5007573;28;20101;-53
2022/09/01 03:26:50;;;;;;;15.25;12.93;;;13.60;99.90;;;;;;5008544;28;20058;-55
2022/09/01 03:29:18;;;;;;;13.77;12.15;;;13.60;99.90;;;;;;5011102;28;20047;-55
2022/09/01 03:31:46;;;;;;;13.93;12.43;;;13.60;99.90;;;;;;5026262;28;20348;-54
2022/09/01 03:34:15;;;;;;;14.75;12.60;;;13.60;99.90;;;;;;5010980;28;20040;-54
2022/09/01 03:36:50;;;;;;;12.32;11.05;;;13.50;99.90;;;;;;4999911;28;20209;-54
2022/09/01 03:39:24;;;;;;;;;;;13.50;99.90;;;;;;5011475;28;20143;-54
2022/09/01 03:41:52;;;;;;;22.60;15.85;;;13.50;99.90;;;;;;5007802;28;20035;-56
2022/09/01 03:44:19;;;;;;;19.58;12.90;;;13.50;99.90;;;;;;5011011;28;20064;-55
2022/09/01 03:46:46;;;;;;;15.32;13.15;;;13.50;99.90;;;;;;5006168;28;20044;-55
2022/09/01 03:49:23;;;;;;;;;;;13.50;99.90;;;;;;4990803;28;20562;-53
2022/09/01 03:51:54;;;;;;;15.10;12.52;;;13.50;99.90;;;;;;5009227;28;20005;-55
2022/09/01 03:54:28;;;;;;;22.73;14.48;;;13.50;99.90;;;;;;4986677;28;20835;-53
2022/09/01 03:56:56;;;;;;;16.25;13.40;;;13.50;99.90;;;;;;4988190;28;20711;-54
2022/09/01 03:59:24;;;;;;;13.43;12.02;;;13.60;99.90;;;;;;4990934;28;20316;-55
2022/09/01 04:01:51;;;;;;;15.80;13.23;;;13.60;99.90;;;;;;4987537;28;20397;-57
2022/09/01 04:04:19;;;;;;;16.95;13.93;;;13.50;99.90;;;;;;5006694;28;20036;-54
2022/09/01 04:06:46;;;;;;;16.65;12.82;;;13.60;99.90;;;;;;4989088;28;20149;-55
2022/09/01 04:09:14;;;;;;;15.85;12.95;;;13.60;99.90;;;;;;5006272;28;20044;-53
2022/09/01 04:11:45;;;;;;;15.77;13.18;;;13.60;99.90;;;;;;5020324;28;20047;-52
2022/09/01 04:14:14;;;;;;;15.73;13.38;;;13.60;99.90;;;;;;4995074;28;20047;-52
2022/09/01 04:19:35;;;;;;;14.07;11.88;;;13.60;99.90;;;;;;5010957;28;20051;-53
2022/09/01 04:22:04;;;;;;;17.00;14.77;;;13.60;99.90;;;;;;5007402;28;20363;-53
2022/09/01 04:24:44;;;;;;;17.60;15.57;;;13.60;99.90;;;;;;5002843;28;20087;-53
2022/09/01 04:27:14;;;;;;;17.27;14.40;;;13.60;99.90;;;;;;5009252;28;20059;-53
2022/09/01 04:29:42;;;;;;;18.42;14.50;;;13.60;99.90;;;;;;5023803;28;20812;-55
2022/09/01 04:32:14;;;;;;;16.90;14.38;;;13.60;99.90;;;;;;5008642;28;20052;-55
2022/09/01 04:34:47;;;;;;;14.82;13.30;;;13.60;99.90;;;;;;5007710;28;20118;-55
2022/09/01 04:37:17;;;;;;;18.30;14.13;;;13.60;99.90;;;;;;4995938;28;20130;-54
2022/09/01 04:39:51;;;;;;;16.02;13.43;;;13.70;99.90;;;;;;4988896;28;20040;-53
2022/09/01 04:42:25;;;;;;;15.13;11.38;;;13.60;99.90;;;;;;4989195;28;20040;-54
2022/09/01 04:44:56;;;;;;;13.65;11.85;;;13.70;99.90;;;;;;4987757;28;20604;-55
2022/09/01 04:47:29;;;;;;;20.77;13.65;;;13.60;99.90;;;;;;5010543;28;20309;-56
2022/09/01 04:50:13;;;;;;;12.20;10.88;;;13.70;99.90;;;;;;5039249;28;20533;-54
2022/09/01 04:53:04;;;;;;;14.48;12.20;;;13.70;99.90;;;;;;5059010;28;20062;-53
2022/09/01 04:55:46;;;;;;;14.32;12.15;;;13.70;99.90;;;;;;5058273;28;20194;-56
2022/09/01 04:58:19;;;;;;;15.40;13.32;;;13.70;99.90;;;;;;5074485;28;20495;-53
2022/09/01 05:00:52;;;;;;;15.52;13.23;;;13.70;99.90;;;;;;5039880;28;20163;-53
2022/09/01 05:03:22;;;;;;;14.45;12.93;;;13.70;99.90;;;;;;5054960;28;20055;-54
2022/09/01 05:06:18;;;;;;;14.43;12.32;;;13.70;99.90;;;;;;5039715;28;20147;-54
2022/09/01 05:08:56;;;;;;;17.35;15.10;;;13.70;99.90;;;;;;5036449;28;20788;-55
2022/09/01 05:11:45;;;;;;;15.23;12.00;;;13.70;99.90;;;;;;5046495;28;20165;-54
2022/09/01 05:14:21;;;;;;;;;;;13.70;99.90;;;;;;5049064;28;20049;-53
2022/09/01 05:16:58;;;;;;;14.57;12.63;;;13.80;99.90;;;;;;5035975;28;19928;-53
2022/09/01 05:19:29;;;;;;;15.38;12.10;;;13.80;99.90;;;;;;5025296;28;20127;-53
2022/09/01 05:22:00;;;;;;;15.50;13.15;;;13.80;99.90;;;;;;5013042;28;20041;-53
2022/09/01 05:24:30;;;;;;;14.35;12.38;;;13.80;99.90;;;;;;5011018;28;20861;-53
2022/09/01 05:27:06;;;;;;;17.60;14.38;;;13.80;99.90;;;;;;5014012;28;20106;-54
2022/09/01 05:29:37;;;;;;;14.35;11.40;;;13.80;99.90;;;;;;5032401;28;20044;-54
2022/09/01 05:32:11;;;;;;;16.88;13.45;;;13.80;99.90;;;;;;5032148;28;20060;-55
2022/09/01 05:34:42;;;;;;;14.60;12.18;;;13.80;99.90;;;;;;5032148;28;20053;-54
2022/09/01 05:37:13;;;;;;;18.27;14.07;;;13.80;99.90;;;;;;5032489;28;20072;-51
2022/09/01 05:39:42;;;;;;;15.15;13.13;;;13.80;99.90;;;;;;5031748;28;20041;-53
2022/09/01 05:42:11;;;;;;;20.25;14.73;;;13.80;99.90;;;;;;5048754;28;20060;-52
2022/09/01 05:44:43;;;;;;;19.35;13.05;;;13.80;99.90;;;;;;5048711;28;20267;-55
2022/09/01 05:47:15;;;;;;;14.40;12.55;;;13.80;99.90;;;;;;5031257;28;20713;-54
2022/09/01 05:49:52;;;;;;;19.58;14.10;;;13.90;99.90;;;;;;5034378;28;20060;-52
2022/09/01 05:52:23;;;;;;;16.58;14.35;;;13.90;99.90;;;;;;5031922;28;20099;-52
2022/09/01 05:54:55;;;;;;;20.50;14.65;;;13.90;99.90;;;;;;5013225;28;20046;-55
2022/09/01 05:57:25;;;;;;;17.58;14.02;;;13.90;99.90;;;;;;5013903;28;20152;-54
2022/09/01 06:00:11;;;;;;;21.63;15.90;;;13.90;99.90;;;;;;5014131;28;20046;-51
2022/09/01 06:02:41;;;;;;;12.57;11.27;;;13.90;99.90;;;;;;5013204;28;20142;-55
2022/09/01 06:05:17;;;;;;;16.30;13.45;;;13.90;99.90;;;;;;5028380;28;20111;-53
2022/09/01 06:07:49;;;;;;;18.30;14.48;;;13.90;99.90;;;;;;5032229;28;20871;-55
2022/09/01 06:10:17;;;;;;;15.68;12.40;;;13.90;99.90;;;;;;5033383;28;20071;-53
2022/09/01 06:12:46;;;;;;;19.58;15.07;;;13.90;99.90;;;;;;5028256;28;20910;-53
2022/09/01 06:15:17;;;;;;;14.68;12.93;;;13.90;99.90;;;;;;5024997;28;20041;-53
2022/09/01 06:17:49;;;;;;;20.00;14.98;;;13.90;99.90;;;;;;5033646;28;20049;-53
2022/09/01 06:20:18;;;;;;;18.38;13.13;;;13.90;99.90;;;;;;5031883;28;20049;-54
2022/09/01 06:22:47;;;;;;;14.98;11.88;;;13.90;99.90;;;;;;5015485;28;20052;-55
2022/09/01 06:25:17;;;;;;;16.27;12.32;;;13.90;99.90;;;;;;5019790;28;20049;-54
2022/09/01 06:27:47;;;;;;;22.02;14.13;;;13.90;99.90;;;;;;5011901;28;20054;-54
2022/09/01 06:30:19;;;;;;;16.17;13.40;;;14.00;99.90;;;;;;5013950;28;20053;-53
2022/09/01 06:33:00;;;;;;;19.98;14.63;;;14.00;99.90;;;;;;5035577;28;20614;-57
2022/09/01 06:35:31;;;;;;;16.65;13.10;;;14.00;99.90;;;;;;5036140;28;20041;-54
2022/09/01 06:38:00;;;;;;;18.08;13.77;;;14.10;99.90;;;;;;5016207;28;20067;-53
2022/09/01 06:40:40;;;;;;;16.92;12.90;;;14.10;99.90;;;;;;5015800;28;20046;-52
2022/09/01 06:43:11;;;;;;;16.00;13.50;;;14.20;99.90;;;;;;5016566;28;20060;-52
2022/09/01 06:45:53;;;;;;;16.95;14.70;;;14.20;99.90;;;;;;5037959;28;20056;-53
2022/09/01 06:48:26;;;;;;;17.08;12.35;;;14.30;99.90;;;;;;5035354;28;20558;-53
2022/09/01 06:51:02;;;;;;;14.00;12.48;;;14.30;99.90;;;;;;5020101;28;20323;-52
2022/09/01 06:53:55;;;;;;;23.52;13.68;;;14.40;99.90;;;;;;5051049;28;20053;-54
2022/09/01 06:56:30;;;;;;;17.92;14.52;;;14.50;99.90;;;;;;5019732;28;20041;-52
2022/09/01 06:59:04;;;;;;;17.92;14.07;;;14.50;99.90;;;;;;5034847;28;20037;-50
2022/09/01 07:01:36;;;;;;;14.60;12.32;;;14.60;99.90;;;;;;5034978;28;20519;-52
2022/09/01 07:04:06;;;;;;;14.45;11.95;;;14.60;99.90;;;;;;5034377;28;20052;-51
2022/09/01 07:06:43;;;;;;;17.40;14.32;;;14.70;99.90;;;;;;5035295;28;20044;-50
2022/09/01 07:09:49;;;;;;;15.43;12.63;;;14.70;99.90;;;;;;5032247;28;20094;-58
2022/09/01 07:12:44;;;;;;;13.60;12.18;;;14.80;99.90;;;;;;5023997;28;20423;-54
2022/09/01 07:15:40;;;;;;;18.58;14.20;;;14.80;99.90;;;;;;5035808;28;20033;-53
2022/09/01 07:18:35;;;;;;;19.08;15.07;;;14.90;99.90;;;;;;5034596;28;20041;-55
2022/09/01 07:21:06;;;;;;;15.55;12.80;;;15.00;99.90;;;;;;5050822;28;20134;-53
2022/09/01 07:23:57;;;;;;;22.48;14.77;;;15.00;99.90;;;;;;5051637;28;20228;-53
2022/09/01 07:27:00;;;;;;;16.77;14.38;;;15.10;99.90;;;;;;5027566;28;20050;-52
2022/09/01 07:29:38;;;;;;;19.30;13.95;;;15.10;99.90;;;;;;5015901;28;20579;-55
2022/09/01 07:32:08;;;;;;;19.60;13.40;;;15.10;99.90;;;;;;5029755;28;20116;-54
2022/09/01 07:34:57;;;;;;;15.60;13.43;;;15.10;99.90;;;;;;5035508;28;20037;-56
2022/09/01 07:37:29;;;;;;;15.27;12.65;;;15.10;99.90;;;;;;5033934;28;20102;-53
2022/09/01 07:40:21;;;;;;;16.10;12.68;;;15.20;99.90;;;;;;5036481;28;20041;-53
2022/09/01 07:43:21;;;;;;;13.80;11.35;;;15.20;99.90;;;;;;5024418;28;20058;-51
2022/09/01 07:46:08;;;;;;;20.27;16.33;;;15.30;99.90;;;;;;5031863;28;20056;-54
2022/09/01 07:48:57;;;;;;;22.98;16.33;;;15.30;99.90;;;;;;5033928;28;20064;-55
2022/09/01 07:51:49;;;;;;;18.23;15.48;;;15.30;99.90;;;;;;5034272;28;20055;-53
2022/09/01 07:54:22;;;;;;;18.52;15.82;;;15.40;99.90;;;;;;5024137;28;20111;-54
2022/09/01 07:56:53;;;;;;;19.38;15.32;;;15.40;99.90;;;;;;5014238;28;20052;-54
2022/09/01 07:59:23;;;;;;;18.50;14.60;;;15.50;99.90;;;;;;5035796;28;20045;-53
2022/09/01 08:02:04;;;;;;;15.90;13.07;;;15.50;99.90;;;;;;5050818;28;20052;-56
2022/09/01 08:04:33;;;;;;;18.02;15.02;;;15.60;99.90;;;;;;5033702;28;20041;-58
2022/09/01 08:07:02;;;;;;;20.33;14.82;;;15.60;99.90;;;;;;5034278;28;20041;-59
2022/09/01 08:09:31;;;;;;;17.13;14.85;;;15.60;99.90;;;;;;5047559;28;20323;-55
2022/09/01 08:12:12;;;;;;;18.27;14.43;;;15.60;99.90;;;;;;5033643;28;20060;-54
2022/09/01 08:14:52;;;;;;;16.45;13.90;;;15.70;99.90;;;;;;5025853;28;20057;-56
2022/09/01 08:17:41;;;;;;;17.58;12.57;;;15.70;99.90;;;;;;5015066;28;20042;-53
2022/09/01 08:20:19;;;;;;;20.25;16.40;;;15.70;99.90;;;;;;4984829;28;20033;-55
2022/09/01 08:23:19;;;;;;;18.02;14.85;;;15.80;99.90;;;;;;5030845;28;20053;-55
2022/09/01 08:25:48;;;;;;;19.45;15.07;;;15.80;99.90;;;;;;5014766;28;20063;-55
2022/09/01 08:28:18;;;;;;;18.48;15.43;;;15.90;99.90;;;;;;5033680;28;20041;-57
2022/09/01 08:30:55;;;;;;;20.15;16.55;;;15.90;99.90;;;;;;5034171;28;20137;-53
2022/09/01 08:33:25;;;;;;;14.07;12.07;;;16.00;99.90;;;;;;5033758;28;20048;-55
2022/09/01 08:35:55;;;;;;;17.23;14.35;;;16.00;99.90;;;;;;5030681;28;20087;-54
2022/09/01 08:38:25;;;;;;;17.70;12.90;;;16.10;99.90;;;;;;5013331;28;20781;-55
2022/09/01 08:40:58;;;;;;;24.60;16.40;;;16.10;99.90;;;;;;5013447;28;20049;-55
2022/09/01 08:43:49;;;;;;;18.80;13.90;;;16.20;99.90;;;;;;5029601;28;20096;-54
2022/09/01 08:46:33;;;;;;;13.55;11.85;;;16.30;99.90;;;;;;5015223;28;20049;-54
2022/09/01 08:49:22;;;;;;;16.52;14.63;;;16.30;99.90;;;;;;5049215;28;20048;-56
2022/09/01 08:52:34;;;;;;;19.20;14.32;;;16.40;99.90;;;;;;5034150;28;20049;-55
2022/09/01 08:55:21;;;;;;;14.90;13.20;;;16.50;99.90;;;;;;5032673;28;20205;-56
2022/09/01 08:57:51;;;;;;;13.68;11.05;;;16.50;99.90;;;;;;5029770;28;20041;-60
2022/09/01 09:00:40;;;;;;;17.90;13.90;;;16.60;99.90;;;;;;5015267;28;20144;-54
2022/09/01 09:03:39;;;;;;;16.80;14.27;;;16.60;99.90;;;;;;5013034;28;20561;-53
2022/09/01 09:06:14;;;;;;;17.13;13.70;;;16.60;99.90;;;;;;5029467;28;20060;-52
2022/09/01 09:08:57;;;;;;;17.48;12.38;;;16.70;99.90;;;;;;5025082;28;20073;-51
2022/09/01 09:11:50;;;;;;;17.23;14.18;;;16.80;99.90;;;;;;5029047;28;20041;-53
2022/09/01 09:14:44;;;;;;;20.08;16.55;;;16.90;99.90;;;;;;5019908;28;20051;-54
2022/09/01 09:17:16;;;;;;;20.65;14.98;;;17.00;99.90;;;;;;5034562;28;20107;-52
2022/09/01 09:19:45;;;;;;;18.55;15.55;;;17.00;99.90;;;;;;5033534;28;20049;-49
2022/09/01 09:22:18;;;;;;;16.65;14.10;;;17.10;99.90;;;;;;5049808;28;20331;-52
2022/09/01 09:25:02;;;;;;;14.48;12.73;;;17.10;99.90;;;;;;5034982;28;20037;-54
2022/09/01 09:27:32;;;;;;;15.27;13.38;;;17.20;99.90;;;;;;5031639;28;20049;-56
2022/09/01 09:30:06;;;;;;;14.10;12.60;;;17.30;99.90;;;;;;5029427;28;20144;-55
2022/09/01 09:32:59;;;;;;;19.08;12.07;;;17.30;99.90;;;;;;5014524;28;20145;-54
2022/09/01 09:35:47;;;;;;;14.07;11.77;;;17.30;99.90;;;;;;5002390;28;20048;-56
2022/09/01 09:38:31;;;;;;;13.40;11.65;;;17.30;99.90;;;;;;5035133;28;20098;-56
2022/09/01 09:41:13;;;;;;;14.57;11.93;;;17.30;99.90;;;;;;5034722;28;20060;-57
2022/09/01 09:43:48;;;;;;;15.40;11.38;;;17.30;99.90;;;;;;5033145;28;20293;-55
2022/09/01 09:46:37;;;;;;;14.50;12.80;;;17.20;99.90;;;;;;5034624;28;20511;-54
2022/09/01 09:49:19;;;;;;;14.20;12.35;;;17.20;99.90;;;;;;5012787;28;20137;-57
2022/09/01 09:52:09;;;;;;;19.85;11.45;;;17.20;99.90;;;;;;5013650;28;20466;-56
2022/09/01 09:54:40;;;;;;;14.75;10.55;;;17.10;99.90;;;;;;5013892;28;20142;-55
2022/09/01 09:57:13;;;;;;;11.38;9.15;;;17.10;99.90;;;;;;4997869;28;20049;-55
2022/09/01 10:00:08;;;;;;;15.02;10.82;;;17.00;99.90;;;;;;5013512;28;20487;-55
2022/09/01 10:02:50;;;;;;;13.82;11.75;;;17.10;99.90;;;;;;5013501;28;20329;-56
2022/09/01 10:05:31;;;;;;;13.18;10.25;;;17.00;99.90;;;;;;4996688;28;20038;-56
2022/09/01 10:08:00;;;;;;;12.65;10.13;;;17.00;99.90;;;;;;5023126;28;20550;-53
2022/09/01 10:10:45;;;;;;;18.10;11.35;;;17.00;99.90;;;;;;5029820;28;20640;-54
2022/09/01 10:13:28;;;;;;;14.83;10.53;;;16.90;99.90;;;;;;5037399;28;20570;-55
2022/09/01 10:16:07;;;;;;;13.23;9.48;;;16.90;99.90;;;;;;5015373;28;20482;-55
2022/09/01 10:18:40;;;;;;;13.77;10.75;;;16.90;99.90;;;;;;4957512;28;20298;-57
2022/09/01 10:21:31;;;;;;;10.98;9.77;;;16.90;99.90;;;;;;4971548;28;20034;-56
2022/09/01 10:24:00;;;;;;;11.73;10.13;;;16.90;99.90;;;;;;4969889;28;20115;-57
2022/09/01 10:26:48;;;;;;;;;;;16.90;99.90;;;;;;4979975;28;20041;-56
2022/09/01 10:29:22;;;;;;;10.50;9.32;;;16.80;99.90;;;;;;4965959;28;19925;-56
2022/09/01 10:31:52;;;;;;;12.88;10.00;;;16.90;99.90;;;;;;4978102;28;20476;-57
2022/09/01 10:34:40;;;;;;;11.18;7.93;;;16.80;99.90;;;;;;4973288;28;20866;-56
2022/09/01 10:37:11;;;;;;;12.23;10.10;;;16.90;99.90;;;;;;4989934;28;20191;-56
2022/09/01 10:40:13;;;;;;;14.07;9.95;;;16.90;99.90;;;;;;4996053;28;20348;-56
2022/09/01 10:42:43;;;;;;;13.23;10.15;;;17.00;99.90;;;;;;5001017;28;20064;-54
2022/09/01 10:45:30;;;;;;;9.43;7.97;;;17.00;99.90;;;;;;5036861;28;20064;-54
2022/09/01 10:48:22;;;;;;;11.38;8.50;;;17.00;99.90;;;;;;5050828;28;20616;-55
2022/09/01 10:51:12;;;;;;;9.85;8.65;;;17.10;99.90;;;;;;5050784;28;20064;-55
2022/09/01 10:53:50;;;;;;;9.20;8.25;;;17.20;99.90;;;;;;5051088;28;20214;-55
2022/09/01 10:56:49;;;;;;;9.45;8.13;;;17.40;99.90;;;;;;5037739;28;20041;-55
2022/09/01 10:59:24;;;;;;;7.50;6.80;;;17.50;99.90;;;;;;5034442;28;20056;-55
2022/09/01 11:02:10;;;;;;;9.48;7.70;;;17.70;99.90;;;;;;5049914;28;20172;-55
2022/09/01 11:04:58;;;;;;;10.45;7.82;;;17.90;99.90;;;;;;5035557;28;20037;-52
2022/09/01 11:07:33;;;;;;;8.30;7.45;;;18.10;99.90;;;;;;5051065;28;20051;-55
2022/09/01 11:10:48;;;;;;;10.63;7.63;;;18.40;99.90;;;;;;5033608;28;20044;-57
2022/09/01 11:13:33;;;;;;;9.65;7.80;;;18.60;99.90;;;;;;5036390;28;20134;-56
2022/09/01 11:16:42;;;;;;;9.70;7.78;;;19.00;99.90;;;;;;5051310;28;20079;-55
2022/09/01 11:19:23;;;;;;;8.68;7.03;;;19.40;99.90;;;;;;5017933;28;20063;-53
2022/09/01 11:22:12;;;;;;;7.78;6.30;;;19.80;99.90;;;;;;5036751;28;20041;-55
2022/09/01 11:24:41;;;;;;;6.82;5.65;;;20.30;99.90;;;;;;5035939;28;20072;-54
2022/09/01 11:27:31;;;;;;;4.90;4.40;;;20.70;99.90;;;;;;5036364;28;20106;-54
2022/09/01 11:30:06;;;;;;;8.98;5.32;;;21.30;99.90;;;;;;5027085;28;20049;-56
2022/09/01 11:32:37;;;;;;;11.65;4.10;;;21.80;99.90;;;;;;5016406;28;20053;-56
2022/09/01 11:35:19;;;;;;;5.00;4.50;;;22.20;99.90;;;;;;5020528;28;20076;-54
2022/09/01 11:37:54;;;;;;;4.63;4.15;;;22.50;99.90;;;;;;5035423;28;20052;-55
2022/09/01 11:40:29;;;;;;;5.00;4.47;;;22.60;99.90;;;;;;5031483;28;20041;-55
2022/09/01 11:43:08;;;;;;;5.70;4.85;;;22.50;99.90;;;;;;5018407;28;20135;-56
2022/09/01 11:45:56;;;;;;;5.53;5.03;;;22.40;99.90;;;;;;5033034;28;20091;-57
2022/09/01 11:48:25;;;;;;;5.53;4.85;;;22.30;99.90;;;;;;5034678;28;20578;-56
2022/09/01 11:51:02;;;;;;;4.90;3.97;;;22.20;99.90;;;;;;5050893;28;20102;-55
2022/09/01 11:53:32;;;;;;;5.25;4.75;;;22.00;99.80;;;;;;5034628;28;20045;-53
2022/09/01 11:56:19;;;;;;;6.22;4.15;;;21.90;99.90;;;;;;5050530;28;20041;-54
2022/09/01 11:58:47;;;;;;;9.10;4.43;;;21.80;99.90;;;;;;5019033;28;20045;-55
2022/09/01 12:01:29;;;;;;;4.80;4.18;;;21.80;99.90;;;;;;5034647;28;20101;-51
2022/09/01 12:04:21;;;;;;;5.07;4.15;;;22.00;99.90;;;;;;5036258;28;20078;-53
2022/09/01 12:07:31;;;;;;;4.03;3.63;;;22.30;99.90;;;;;;5034115;28;20080;-55
2022/09/01 12:09:59;;;;;;;4.00;3.58;;;22.60;99.90;;;;;;5024713;28;20061;-56
2022/09/01 12:12:37;;;;;;;3.85;3.55;;;22.90;99.90;;;;;;5035476;28;20450;-55
2022/09/01 12:15:24;;;;;;;2.97;2.67;;;23.00;98.90;;;;;;5022470;28;20048;-55
2022/09/01 12:18:07;;;;;;;;;;;23.10;98.60;;;;;;5031451;28;20046;-55
2022/09/01 12:20:37;;;;;;;3.10;2.80;;;23.00;97.50;;;;;;5014471;28;20012;-55
2022/09/01 12:23:30;;;;;;;6.10;3.38;;;22.70;96.60;;;;;;5015869;28;20603;-56
2022/09/01 12:26:10;;;;;;;7.32;4.25;;;22.50;99.50;;;;;;5015519;28;20520;-56
2022/09/01 12:28:40;;;;;;;6.15;3.42;;;22.30;99.70;;;;;;5014799;28;20123;-54
2022/09/01 12:31:20;;;;;;;6.32;2.92;;;22.00;99.90;;;;;;5007368;28;20050;-54
2022/09/01 12:33:48;;;;;;;6.68;3.33;;;21.90;99.90;;;;;;5034023;28;20051;-56
2022/09/01 12:36:28;;;;;;;3.95;3.10;;;21.90;99.90;;;;;;5033597;28;20044;-56
2022/09/01 12:39:16;;;;;;;7.70;3.00;;;21.90;99.90;;;;;;5050904;28;20041;-54
2022/09/01 12:41:59;;;;;;;2.90;2.70;;;22.10;99.90;;;;;;5035159;28;20041;-56
2022/09/01 12:44:37;;;;;;;4.78;3.25;;;22.20;99.90;;;;;;5033785;28;20129;-55
2022/09/01 12:47:12;;;;;;;5.13;3.22;;;22.40;99.90;;;;;;5033159;28;20086;-54
2022/09/01 12:49:47;;;;;;;4.40;3.22;;;22.70;99.90;;;;;;5034339;28;20045;-56
2022/09/01 12:52:26;;;;;;;5.88;3.70;;;23.00;99.20;;;;;;5034012;28;20598;-56
2022/09/01 12:54:58;;;;;;;3.35;3.05;;;23.30;97.50;;;;;;5034162;28;20419;-52
2022/09/01 12:57:29;;;;;;;3.22;2.92;;;23.60;92.60;;;;;;5049519;28;20621;-55
2022/09/01 13:00:11;;;;;;;3.42;3.13;;;23.80;95.50;;;;;;5033865;28;20047;-55
2022/09/01 13:02:43;;;;;;;4.38;3.97;;;23.90;94.40;;;;;;5034138;28;20118;-57
2022/09/01 13:05:24;;;;;;;5.05;3.42;;;23.80;92.60;;;;;;5049685;28;20040;-56
2022/09/01 13:08:12;;;;;;;4.32;2.95;;;23.50;93.60;;;;;;5035505;28;20151;-55
2022/09/01 13:10:44;;;;;;;2.83;2.42;;;23.20;92.90;;;;;;5032273;28;20055;-56
2022/09/01 13:13:15;;;;;;;2.95;2.65;;;23.00;93.80;;;;;;5015791;28;20068;-56
2022/09/01 13:15:49;;;;;;;2.45;2.25;;;23.10;93.30;;;;;;5034316;28;20578;-51
2022/09/01 13:18:20;;;;;;;2.40;2.20;;;23.20;94.30;;;;;;5033980;28;20045;-54
2022/09/01 13:20:51;;;;;;;2.95;2.75;;;23.40;95.10;;;;;;5032069;28;20049;-55
2022/09/01 13:23:21;;;;;;;5.53;3.25;;;23.70;95.40;;;;;;5032654;28;20048;-55